Rayford, Texas
Current Conditions -  °F | °C
As of 1:53 AM on Sunday 23 Nov 2014 (Local Time) from KIAH Reporting Station
Overcast Overcast  
Wind Chill: 64°   Ceiling: 600
Heat Index: 64°   Visibility: 10mi
Dew Point: 62°   Wind: 7mph
Humidity: 93%   Direction: 70°ENE
Pressure: 29.63"   Gusts: NA
Location:  30.0613°N, 95.3841°W
Report Text: KIAH 230753Z 07006KT 10SM BKN006 OVC015 18/17 A2963 RMK AO2 TSE33RAE47 SLP034 OCNL LTGICCC DSNT NE TS MOV NE CB DSNT NE MOV NE P0010 T01780167
Loading
Personal Weather Stations






























Interactive Weather Map New forecast layout! Learn more

10-Day Weather Forecast

Advertisements
Track Severe Weather on mobile